Time;durP1;ratioP1;P1;durP2;ratioP2;P2;SDS_P1;SDS_P2;PMS_P1;PMS_P2;Temp;Humidity;BMP_temperature;BMP_pressure;BME280_temperature;BME280_humidity;BME280_pressure;Samples;Min_cycle;Max_cycle;Signal;HPM_P1;HPM_P2
2021/08/06 00:02:25;;;;;;;3.93;2.70;;;14.80;99.90;;;;;;5057153;28;20658;-69
2021/08/06 00:04:50;;;;;;;2.50;2.30;;;14.80;99.90;;;;;;5056907;28;20170;-66
2021/08/06 00:07:16;;;;;;;2.63;2.43;;;14.90;99.90;;;;;;5056958;28;20405;-68
2021/08/06 00:09:42;;;;;;;5.37;3.23;;;15.00;99.90;;;;;;5056975;28;20179;-68
2021/08/06 00:12:08;;;;;;;5.67;3.43;;;15.00;99.90;;;;;;5056891;28;20182;-67
2021/08/06 00:14:34;;;;;;;3.47;2.10;;;14.90;99.90;;;;;;5056935;28;20167;-69
2021/08/06 00:17:00;;;;;;;3.40;2.83;;;14.90;99.90;;;;;;5056998;28;20407;-68
2021/08/06 00:19:26;;;;;;;4.97;3.03;;;14.90;99.90;;;;;;5056990;28;20408;-69
2021/08/06 00:21:52;;;;;;;7.93;2.57;;;15.00;99.90;;;;;;5056692;28;20424;-68
2021/08/06 00:24:17;;;;;;;4.00;2.70;;;15.00;99.90;;;;;;5056546;28;20210;-67
2021/08/06 00:26:43;;;;;;;3.07;2.30;;;15.00;99.90;;;;;;5056740;28;20170;-67
2021/08/06 00:29:09;;;;;;;4.57;2.90;;;15.00;99.90;;;;;;5056850;28;20253;-68
2021/08/06 00:31:36;;;;;;;5.80;2.80;;;15.10;99.90;;;;;;5056506;28;20514;-67
2021/08/06 00:34:02;;;;;;;6.80;2.97;;;15.10;99.90;;;;;;5056446;28;20185;-67
2021/08/06 00:36:27;;;;;;;3.93;2.90;;;15.20;99.90;;;;;;5056519;28;20444;-68
2021/08/06 00:38:53;;;;;;;3.20;2.93;;;15.20;99.90;;;;;;5056484;28;20202;-68
2021/08/06 00:41:19;;;;;;;3.50;3.13;;;15.30;99.90;;;;;;5056345;28;20190;-67
2021/08/06 00:43:44;;;;;;;7.17;3.50;;;15.30;99.90;;;;;;5056261;28;20529;-68
2021/08/06 00:46:16;;;;;;;2.60;2.40;;;15.30;99.90;;;;;;5056441;28;20680;-67
2021/08/06 00:48:42;;;;;;;3.03;2.77;;;15.30;99.90;;;;;;5056476;28;20212;-67
2021/08/06 00:51:09;;;;;;;4.30;2.60;;;15.30;99.90;;;;;;5056119;28;20427;-67
2021/08/06 00:53:37;;;;;;;3.17;2.57;;;15.40;99.90;;;;;;5056202;28;20902;-68
2021/08/06 00:56:04;;;;;;;4.97;3.23;;;15.30;99.90;;;;;;5056144;28;20460;-67
2021/08/06 00:58:30;;;;;;;2.10;2.00;;;15.40;99.90;;;;;;5056464;28;20870;-68
2021/08/06 01:00:55;;;;;;;6.67;3.00;;;15.40;99.90;;;;;;5055356;28;20429;-67
2021/08/06 01:03:27;;;;;;;3.47;3.17;;;15.40;99.90;;;;;;5055790;28;20409;-69
2021/08/06 01:05:59;;;;;;;3.90;2.90;;;15.50;99.90;;;;;;5056015;28;20177;-68
2021/08/06 01:09:12;;;;;;;2.37;2.17;;;15.50;99.90;;;;;;5055771;28;20431;-66
2021/08/06 01:11:40;;;;;;;3.07;2.40;;;15.50;99.90;;;;;;5009547;28;20444;-68
2021/08/06 01:14:15;;;;;;;3.20;2.53;;;15.50;99.90;;;;;;5055812;28;20397;-67
2021/08/06 01:16:42;;;;;;;2.93;2.73;;;15.60;99.90;;;;;;5055915;28;20508;-67
2021/08/06 01:19:42;;;;;;;3.30;2.83;;;15.60;99.90;;;;;;5055781;28;20401;-68
2021/08/06 01:22:20;;;;;;;3.03;2.50;;;15.60;99.90;;;;;;5055513;28;20421;-66
2021/08/06 01:24:55;;;;;;;2.00;1.90;;;15.60;99.90;;;;;;5055492;28;20405;-68
2021/08/06 01:27:24;;;;;;;3.10;2.80;;;15.60;99.90;;;;;;5055789;28;20399;-65
2021/08/06 01:29:49;;;;;;;3.27;2.73;;;15.60;99.90;;;;;;5055532;28;20623;-67
2021/08/06 01:32:15;;;;;;;4.47;2.70;;;15.60;99.90;;;;;;5055432;28;20436;-67
2021/08/06 01:34:41;;;;;;;4.60;3.17;;;15.70;99.90;;;;;;5055161;28;20189;-67
2021/08/06 01:37:06;;;;;;;4.70;2.60;;;15.70;99.90;;;;;;5055402;28;20696;-68
2021/08/06 01:39:32;;;;;;;3.53;2.60;;;15.70;99.90;;;;;;5054124;28;20253;-67
2021/08/06 01:42:07;;;;;;;3.47;3.27;;;15.60;99.90;;;;;;5055324;28;20186;-67
2021/08/06 01:44:39;;;;;;;5.40;3.20;;;15.60;99.90;;;;;;5055160;28;20177;-69
2021/08/06 01:47:17;;;;;;;2.63;2.43;;;15.60;99.90;;;;;;5055331;28;20411;-66
2021/08/06 01:49:51;;;;;;;3.10;2.80;;;15.60;99.90;;;;;;5055367;28;20404;-69
2021/08/06 01:52:21;;;;;;;3.23;2.87;;;15.60;99.90;;;;;;5055271;28;20496;-67
2021/08/06 01:54:48;;;;;;;2.90;2.30;;;15.70;99.90;;;;;;5055040;28;20393;-68
2021/08/06 01:57:14;;;;;;;7.80;3.50;;;15.70;99.90;;;;;;5055029;28;20406;-68
2021/08/06 01:59:42;;;;;;;5.93;3.57;;;15.80;99.90;;;;;;5055064;28;20411;-67
2021/08/06 02:02:09;;;;;;;3.40;3.20;;;15.80;99.90;;;;;;5054842;28;20663;-66
2021/08/06 02:04:36;;;;;;;3.77;3.07;;;15.70;99.90;;;;;;5054824;28;20405;-68
2021/08/06 02:07:02;;;;;;;3.03;2.83;;;15.80;99.90;;;;;;5055000;28;20404;-68
2021/08/06 02:09:28;;;;;;;5.83;3.20;;;15.70;99.90;;;;;;5054666;28;20495;-68
2021/08/06 02:11:53;;;;;;;4.50;2.90;;;15.70;99.90;;;;;;5053595;28;20432;-68
2021/08/06 02:14:20;;;;;;;3.10;2.90;;;15.80;99.90;;;;;;5054551;28;20413;-66
2021/08/06 02:16:48;;;;;;;3.87;3.03;;;15.80;99.90;;;;;;5054596;28;20292;-68
2021/08/06 02:19:15;;;;;;;5.50;3.77;;;15.70;99.90;;;;;;5054673;28;20487;-69
2021/08/06 02:21:42;;;;;;;3.73;3.33;;;15.70;99.90;;;;;;5054441;28;20433;-66
2021/08/06 02:24:11;;;;;;;3.23;2.93;;;15.70;99.90;;;;;;5054405;28;20749;-68
2021/08/06 02:26:39;;;;;;;3.30;3.00;;;15.70;99.90;;;;;;5054350;28;20500;-67
2021/08/06 02:29:12;;;;;;;2.67;2.47;;;15.50;99.90;;;;;;5054433;28;20450;-68
2021/08/06 02:31:40;;;;;;;3.40;3.10;;;15.50;99.90;;;;;;5054385;28;20420;-66
2021/08/06 02:34:06;;;;;;;3.20;2.97;;;15.50;99.90;;;;;;5054138;28;20405;-68
2021/08/06 02:36:33;;;;;;;2.93;2.73;;;15.40;99.90;;;;;;5054436;28;20980;-67
2021/08/06 02:38:59;;;;;;;2.80;2.60;;;15.30;99.90;;;;;;5054419;28;20425;-66
2021/08/06 02:41:28;;;;;;;3.10;2.90;;;15.30;99.90;;;;;;5054086;28;20416;-66
2021/08/06 02:43:54;;;;;;;4.67;2.37;;;15.40;99.90;;;;;;5053989;28;20941;-67
2021/08/06 02:46:20;;;;;;;3.73;3.43;;;15.50;99.90;;;;;;5054444;28;20401;-69
2021/08/06 02:48:47;;;;;;;3.50;3.17;;;15.60;99.90;;;;;;5054140;28;20617;-68
2021/08/06 02:51:13;;;;;;;3.87;2.53;;;15.60;99.90;;;;;;5054023;28;20439;-67
2021/08/06 02:53:39;;;;;;;4.17;3.83;;;15.60;99.90;;;;;;5053870;28;20549;-69
2021/08/06 02:56:05;;;;;;;4.17;3.80;;;15.70;99.90;;;;;;5053797;28;20555;-68
2021/08/06 02:58:31;;;;;;;5.10;2.97;;;15.70;99.90;;;;;;5053812;28;20251;-67
2021/08/06 03:00:56;;;;;;;3.97;3.53;;;15.80;99.90;;;;;;5053721;28;20447;-66
2021/08/06 03:03:22;;;;;;;4.20;3.60;;;15.80;99.90;;;;;;5053933;28;20245;-67
2021/08/06 03:05:47;;;;;;;4.17;3.87;;;15.80;99.90;;;;;;5053949;28;20656;-66
2021/08/06 03:08:13;;;;;;;5.23;4.83;;;15.90;99.90;;;;;;5053598;28;20599;-68
2021/08/06 03:10:39;;;;;;;21.53;6.37;;;15.90;99.90;;;;;;5053807;28;20680;-68
2021/08/06 03:13:05;;;;;;;4.53;3.80;;;15.90;99.90;;;;;;5053636;28;20515;-67
2021/08/06 03:15:31;;;;;;;3.43;3.23;;;15.90;99.90;;;;;;5053395;28;20553;-68
2021/08/06 03:17:58;;;;;;;3.67;3.30;;;15.90;99.90;;;;;;5053627;28;20393;-67
2021/08/06 03:20:24;;;;;;;3.60;3.30;;;15.90;99.90;;;;;;5053497;28;20435;-67
2021/08/06 03:22:51;;;;;;;3.17;2.97;;;15.80;99.90;;;;;;5053117;28;20435;-66
2021/08/06 03:25:17;;;;;;;3.40;3.20;;;15.80;99.90;;;;;;5053276;28;20405;-67
2021/08/06 03:27:43;;;;;;;3.50;3.20;;;15.80;99.90;;;;;;5053623;28;20417;-68
2021/08/06 03:30:12;;;;;;;3.80;3.47;;;15.80;99.90;;;;;;5053591;28;20508;-68
2021/08/06 03:32:39;;;;;;;77.67;13.70;;;15.80;99.90;;;;;;5053306;28;20408;-67
2021/08/06 03:35:06;;;;;;;46.27;7.07;;;15.70;99.90;;;;;;5053222;28;20540;-66
2021/08/06 03:37:33;;;;;;;4.70;3.83;;;15.70;99.90;;;;;;5053413;28;20394;-69
2021/08/06 03:39:59;;;;;;;6.87;4.80;;;15.60;99.90;;;;;;5053392;28;20523;-67
2021/08/06 03:42:25;;;;;;;3.47;3.27;;;15.60;99.90;;;;;;5053391;28;20441;-68
2021/08/06 03:44:50;;;;;;;3.97;3.43;;;15.60;99.90;;;;;;5053001;28;20172;-68
2021/08/06 03:47:16;;;;;;;4.27;4.00;;;15.70;99.90;;;;;;5053324;28;20638;-66
2021/08/06 03:49:42;;;;;;;3.20;2.90;;;15.60;99.90;;;;;;5053378;28;20197;-68
2021/08/06 03:52:08;;;;;;;3.50;2.90;;;15.60;99.90;;;;;;5053005;28;20188;-68
2021/08/06 03:54:33;;;;;;;3.97;2.70;;;15.40;99.90;;;;;;5052930;28;20467;-68
2021/08/06 03:56:59;;;;;;;2.10;2.00;;;15.50;99.90;;;;;;5053037;28;20202;-67
2021/08/06 03:59:25;;;;;;;3.00;2.33;;;15.50;99.90;;;;;;5053175;28;20594;-69
2021/08/06 04:01:50;;;;;;;2.03;1.93;;;15.30;99.90;;;;;;5052952;28;20277;-67
2021/08/06 04:04:16;;;;;;;4.87;3.33;;;15.20;99.90;;;;;;5052917;28;20545;-66
2021/08/06 04:06:42;;;;;;;4.13;2.50;;;15.30;99.90;;;;;;5052902;28;20176;-67
2021/08/06 04:09:07;;;;;;;3.20;3.00;;;15.40;99.90;;;;;;5052885;28;20720;-67
2021/08/06 04:11:33;;;;;;;3.23;3.03;;;15.50;99.90;;;;;;5053089;28;20281;-69
2021/08/06 04:13:59;;;;;;;3.00;2.60;;;15.60;99.90;;;;;;5052811;28;20304;-66
2021/08/06 04:16:25;;;;;;;2.00;1.90;;;15.40;99.90;;;;;;5053085;28;20256;-66
2021/08/06 04:18:53;;;;;;;2.57;2.37;;;15.30;99.90;;;;;;5052905;28;20450;-68
2021/08/06 04:21:19;;;;;;;2.83;2.60;;;15.30;99.90;;;;;;5053009;28;20191;-67
2021/08/06 04:23:45;;;;;;;1.80;1.70;;;15.40;99.90;;;;;;5052897;28;20492;-67
2021/08/06 04:26:11;;;;;;;2.80;2.60;;;15.50;99.90;;;;;;5052841;28;20625;-67
2021/08/06 04:28:36;;;;;;;4.10;2.43;;;15.50;99.90;;;;;;5052893;28;20174;-68
2021/08/06 04:31:05;;;;;;;2.10;2.00;;;15.50;99.90;;;;;;5052915;28;20437;-67
2021/08/06 04:33:31;;;;;;;3.60;2.17;;;15.60;99.90;;;;;;5052641;28;20171;-67
2021/08/06 04:35:57;;;;;;;2.90;2.70;;;15.60;99.90;;;;;;5055748;28;20452;-68
2021/08/06 04:38:22;;;;;;;3.13;2.80;;;15.70;99.90;;;;;;5056645;28;20918;-68
2021/08/06 04:40:48;;;;;;;3.47;3.17;;;15.70;99.90;;;;;;5056547;28;20421;-68
2021/08/06 04:43:14;;;;;;;3.60;3.37;;;15.60;99.90;;;;;;5056482;28;20264;-67
2021/08/06 04:45:40;;;;;;;3.23;3.03;;;15.60;99.90;;;;;;5056650;28;20174;-68
2021/08/06 04:48:06;;;;;;;3.37;2.43;;;15.60;99.90;;;;;;5056565;28;20267;-67
2021/08/06 04:50:32;;;;;;;4.57;3.27;;;15.60;99.90;;;;;;5056335;28;20435;-68
2021/08/06 04:52:58;;;;;;;4.03;2.93;;;15.70;99.90;;;;;;5056519;28;20252;-67
2021/08/06 04:55:25;;;;;;;3.70;3.20;;;15.70;99.90;;;;;;5056041;28;20444;-68
2021/08/06 04:57:51;;;;;;;3.10;2.20;;;15.50;99.90;;;;;;5056261;28;20397;-67
2021/08/06 05:00:18;;;;;;;2.87;2.67;;;15.50;99.90;;;;;;5056175;28;20941;-67
2021/08/06 05:02:44;;;;;;;2.60;2.40;;;15.70;99.90;;;;;;5056082;28;20400;-66
2021/08/06 05:05:11;;;;;;;3.37;2.20;;;15.90;99.90;;;;;;5055829;28;20424;-67
2021/08/06 05:07:36;;;;;;;2.50;2.30;;;16.00;99.90;;;;;;5055846;28;20888;-69
2021/08/06 05:10:03;;;;;;;2.90;2.60;;;16.10;99.90;;;;;;5055990;28;20445;-68
2021/08/06 05:12:29;;;;;;;4.50;2.63;;;16.10;99.90;;;;;;5055993;28;20560;-68
2021/08/06 05:14:55;;;;;;;4.17;2.30;;;16.20;99.90;;;;;;5055775;28;20407;-68
2021/08/06 05:17:20;;;;;;;2.73;2.10;;;16.20;99.90;;;;;;5055976;28;20176;-67
2021/08/06 05:19:46;;;;;;;2.30;2.10;;;16.10;99.90;;;;;;5055942;28;20541;-67
2021/08/06 05:22:12;;;;;;;5.17;2.83;;;16.20;99.90;;;;;;5055626;28;20197;-68
2021/08/06 05:24:38;;;;;;;2.50;1.73;;;16.30;99.90;;;;;;5055459;28;20170;-68
2021/08/06 05:27:04;;;;;;;3.03;1.97;;;16.20;99.90;;;;;;5055731;28;20570;-67
2021/08/06 05:29:30;;;;;;;3.00;1.70;;;16.20;99.90;;;;;;5055722;28;20180;-68
2021/08/06 05:31:56;;;;;;;2.80;1.83;;;16.10;99.90;;;;;;5055396;28;20565;-68
2021/08/06 05:34:21;;;;;;;2.07;1.87;;;16.00;99.90;;;;;;5055403;28;20907;-68
2021/08/06 05:36:47;;;;;;;5.53;1.77;;;16.10;99.90;;;;;;5055298;28;20592;-66
2021/08/06 05:39:13;;;;;;;3.10;1.97;;;16.10;99.90;;;;;;5055707;28;20722;-69
2021/08/06 05:41:38;;;;;;;2.33;1.93;;;16.30;99.90;;;;;;5055308;28;20188;-67
2021/08/06 05:44:05;;;;;;;3.63;2.00;;;16.10;99.90;;;;;;5055188;28;20582;-67
2021/08/06 05:46:30;;;;;;;1.57;1.47;;;16.10;99.90;;;;;;5055343;28;20223;-67
2021/08/06 05:48:56;;;;;;;3.30;2.23;;;16.20;99.90;;;;;;5055178;28;20446;-66
2021/08/06 05:51:22;;;;;;;6.07;1.73;;;16.30;99.90;;;;;;5055310;28;20268;-68
2021/08/06 05:53:47;;;;;;;1.60;1.50;;;16.30;99.90;;;;;;5055148;28;20170;-67
2021/08/06 05:56:13;;;;;;;1.80;1.67;;;16.30;99.90;;;;;;5055075;28;20211;-67
2021/08/06 05:58:40;;;;;;;3.20;1.50;;;16.30;99.90;;;;;;5055271;28;20690;-67
2021/08/06 06:01:06;;;;;;;3.73;1.77;;;16.40;99.90;;;;;;5055107;28;20189;-68
2021/08/06 06:03:32;;;;;;;3.07;1.77;;;16.30;99.90;;;;;;5054793;28;20401;-68
2021/08/06 06:05:57;;;;;;;3.20;2.17;;;16.20;99.90;;;;;;5055148;28;20689;-68
2021/08/06 06:08:23;;;;;;;4.43;2.00;;;16.10;99.90;;;;;;5054828;28;20212;-67
2021/08/06 06:10:48;;;;;;;3.03;2.30;;;16.30;99.90;;;;;;5054899;28;20188;-68
2021/08/06 06:13:14;;;;;;;1.80;1.70;;;16.20;99.90;;;;;;5054745;28;20210;-68
2021/08/06 06:15:40;;;;;;;1.97;1.87;;;16.20;99.90;;;;;;5054648;28;20225;-67
2021/08/06 06:18:07;;;;;;;2.40;1.53;;;16.20;99.90;;;;;;5054673;28;20689;-68
2021/08/06 06:20:33;;;;;;;3.27;2.40;;;16.40;99.90;;;;;;5054615;28;20580;-69
2021/08/06 06:22:58;;;;;;;2.13;1.60;;;16.50;99.90;;;;;;5054740;28;20408;-69
2021/08/06 06:25:24;;;;;;;3.13;1.93;;;16.60;99.90;;;;;;5054544;28;20699;-66
2021/08/06 06:27:59;;;;;;;2.20;1.37;;;16.60;99.90;;;;;;5054698;28;20174;-67
2021/08/06 06:30:28;;;;;;;3.60;1.40;;;16.50;99.90;;;;;;5054674;28;20560;-67
2021/08/06 06:32:55;;;;;;;4.27;1.60;;;16.60;99.90;;;;;;5054712;28;20478;-68
2021/08/06 06:35:21;;;;;;;2.13;1.70;;;16.60;99.90;;;;;;5054229;28;20451;-68
2021/08/06 06:37:48;;;;;;;2.13;1.43;;;17.10;99.90;;;;;;5054431;28;20397;-68
2021/08/06 06:40:14;;;;;;;2.10;1.73;;;16.80;99.90;;;;;;5053044;28;20965;-68
2021/08/06 06:42:40;;;;;;;1.40;1.30;;;16.70;99.90;;;;;;5053003;28;20482;-66
2021/08/06 06:45:07;;;;;;;2.33;2.13;;;16.90;99.90;;;;;;5054015;28;20407;-66
2021/08/06 06:47:43;;;;;;;3.20;1.37;;;17.00;99.90;;;;;;5054149;28;20420;-68
2021/08/06 06:50:11;;;;;;;2.73;1.80;;;17.20;99.90;;;;;;5054101;28;20487;-69
2021/08/06 06:52:37;;;;;;;2.43;1.50;;;17.20;99.90;;;;;;5054163;28;20782;-69
2021/08/06 06:55:07;;;;;;;1.37;1.27;;;17.10;99.90;;;;;;5054061;28;20497;-68
2021/08/06 06:57:50;;;;;;;1.50;1.40;;;17.20;99.90;;;;;;5053209;28;20506;-67
2021/08/06 07:00:18;;;;;;;2.10;1.57;;;17.10;99.90;;;;;;5053967;28;20425;-67
2021/08/06 07:02:43;;;;;;;4.70;1.90;;;17.20;99.90;;;;;;5054208;28;20750;-67
2021/08/06 07:05:11;;;;;;;1.53;1.43;;;17.10;99.90;;;;;;5053879;28;20408;-69
2021/08/06 07:07:36;;;;;;;1.60;1.50;;;17.10;99.90;;;;;;5053878;28;20528;-68
2021/08/06 07:10:03;;;;;;;5.57;1.83;;;17.10;99.90;;;;;;5053722;28;20410;-69
2021/08/06 07:12:29;;;;;;;4.53;1.60;;;17.10;99.90;;;;;;5053956;28;20412;-66
2021/08/06 07:14:55;;;;;;;3.20;1.50;;;17.20;99.90;;;;;;5053558;28;20398;-68
2021/08/06 07:17:20;;;;;;;2.03;1.53;;;17.30;99.90;;;;;;5053780;28;20174;-67
2021/08/06 07:19:46;;;;;;;1.60;1.50;;;17.30;99.90;;;;;;5052480;28;20185;-68
2021/08/06 07:22:11;;;;;;;3.87;1.40;;;17.50;99.90;;;;;;5053548;28;20215;-68
2021/08/06 07:24:37;;;;;;;8.50;1.80;;;17.70;99.90;;;;;;5053614;28;20162;-69
2021/08/06 07:27:03;;;;;;;1.57;1.10;;;17.90;99.90;;;;;;5053800;28;20529;-69
2021/08/06 07:29:29;;;;;;;2.43;1.83;;;17.80;99.90;;;;;;5053794;28;20216;-67
2021/08/06 07:31:54;;;;;;;4.40;1.57;;;17.70;99.90;;;;;;5053394;28;20832;-68
2021/08/06 07:34:20;;;;;;;2.53;2.23;;;17.80;99.90;;;;;;5053272;28;20212;-69
2021/08/06 07:36:46;;;;;;;2.03;1.60;;;17.60;99.90;;;;;;5053390;28;20210;-69
2021/08/06 07:39:12;;;;;;;5.60;1.47;;;17.60;99.90;;;;;;5053548;28;20637;-67
2021/08/06 07:41:38;;;;;;;2.17;1.20;;;17.90;99.90;;;;;;5053303;28;20560;-67
2021/08/06 07:44:04;;;;;;;1.57;1.47;;;18.50;99.40;;;;;;5053179;28;20397;-68
2021/08/06 07:46:30;;;;;;;2.07;1.50;;;19.00;99.70;;;;;;5053381;28;20676;-68
2021/08/06 07:48:55;;;;;;;1.60;1.37;;;19.60;98.80;;;;;;5053425;28;20565;-68
2021/08/06 07:51:21;;;;;;;1.13;1.03;;;20.30;98.20;;;;;;5053356;28;20198;-68
2021/08/06 07:53:47;;;;;;;2.50;1.30;;;21.00;96.80;;;;;;5053030;28;20178;-68
2021/08/06 07:56:13;;;;;;;1.47;1.37;;;21.40;96.40;;;;;;5053424;28;20285;-68
2021/08/06 07:58:40;;;;;;;2.40;1.30;;;21.40;95.60;;;;;;5053406;28;20196;-67
2021/08/06 08:01:05;;;;;;;2.83;1.43;;;21.30;95.10;;;;;;5053149;28;20423;-67
2021/08/06 08:03:31;;;;;;;4.20;1.47;;;21.10;94.40;;;;;;5053298;28;20404;-67
2021/08/06 08:05:58;;;;;;;4.03;1.80;;;21.00;96.40;;;;;;5053256;28;20174;-67
2021/08/06 08:08:23;;;;;;;2.77;1.27;;;20.60;94.20;;;;;;5053055;28;20193;-68
2021/08/06 08:10:49;;;;;;;1.90;1.23;;;20.50;95.60;;;;;;5056158;28;20820;-67
2021/08/06 08:13:14;;;;;;;1.00;0.90;;;20.60;96.00;;;;;;5056973;28;20173;-67
2021/08/06 08:15:40;;;;;;;2.33;1.37;;;20.60;94.40;;;;;;5057083;28;20250;-67
2021/08/06 08:18:06;;;;;;;2.03;1.20;;;21.10;95.60;;;;;;5056951;28;20658;-67
2021/08/06 08:20:32;;;;;;;1.33;1.00;;;22.30;93.00;;;;;;5057029;28;20222;-67
2021/08/06 08:22:57;;;;;;;1.10;0.97;;;24.00;91.90;;;;;;5056925;28;20167;-68
2021/08/06 08:25:23;;;;;;;1.17;1.00;;;24.70;87.40;;;;;;5056719;28;20178;-67
2021/08/06 08:27:49;;;;;;;1.33;1.10;;;23.90;85.80;;;;;;5057055;28;20677;-67
2021/08/06 08:30:14;;;;;;;2.33;1.00;;;23.90;90.10;;;;;;5056816;28;20560;-67
2021/08/06 08:32:40;;;;;;;2.10;1.07;;;24.00;89.00;;;;;;5056728;28;20174;-68
2021/08/06 08:35:07;;;;;;;2.10;1.03;;;23.80;85.50;;;;;;5056606;28;20303;-69
2021/08/06 08:37:35;;;;;;;3.53;1.83;;;23.20;86.80;;;;;;5056769;28;20163;-68
2021/08/06 08:40:02;;;;;;;8.50;2.27;;;22.80;89.50;;;;;;5056463;28;20418;-69
2021/08/06 08:42:29;;;;;;;2.97;1.10;;;22.60;88.60;;;;;;5056582;28;20821;-69
2021/08/06 08:45:00;;;;;;;1.30;1.20;;;22.60;90.20;;;;;;5056717;28;20757;-68
2021/08/06 08:47:27;;;;;;;3.00;1.00;;;22.40;92.40;;;;;;5056735;28;20396;-69
2021/08/06 08:49:53;;;;;;;1.83;1.27;;;22.80;91.50;;;;;;5056454;28;20761;-66
2021/08/06 08:52:20;;;;;;;1.20;1.20;;;22.80;90.20;;;;;;5056389;28;20378;-69
2021/08/06 08:54:46;;;;;;;3.57;2.30;;;22.70;91.50;;;;;;5056281;28;20376;-69
2021/08/06 08:57:16;;;;;;;1.70;1.17;;;22.40;90.40;;;;;;5056418;28;20462;-67
2021/08/06 08:59:42;;;;;;;2.00;1.20;;;21.80;90.80;;;;;;5056520;28;20392;-67
2021/08/06 09:02:10;;;;;;;2.20;1.40;;;21.20;91.40;;;;;;5056100;28;20423;-67
2021/08/06 09:04:36;;;;;;;1.80;1.70;;;20.50;92.70;;;;;;5055945;28;20165;-69
2021/08/06 09:07:02;;;;;;;2.80;1.70;;;20.00;93.50;;;;;;5055902;28;20411;-69
2021/08/06 09:09:28;;;;;;;1.67;1.27;;;19.80;93.60;;;;;;5056032;28;20195;-66
2021/08/06 09:12:06;;;;;;;2.20;1.30;;;19.60;94.00;;;;;;5055994;28;20190;-67
2021/08/06 09:14:33;;;;;;;1.30;1.13;;;19.90;94.20;;;;;;5055591;28;20418;-66
2021/08/06 09:17:09;;;;;;;3.07;1.17;;;20.50;94.70;;;;;;5055677;28;20567;-68
2021/08/06 09:19:54;;;;;;;3.63;1.40;;;20.90;94.60;;;;;;5055719;28;20748;-69
2021/08/06 09:22:24;;;;;;;2.97;1.60;;;21.90;94.00;;;;;;5055885;28;20391;-67
2021/08/06 09:25:02;;;;;;;4.97;1.50;;;22.90;90.60;;;;;;5055724;28;20404;-67
2021/08/06 09:27:30;;;;;;;1.03;0.83;;;23.40;90.40;;;;;;5055837;28;20756;-69
2021/08/06 09:30:00;;;;;;;5.80;1.40;;;22.80;90.30;;;;;;5054363;28;20767;-66
2021/08/06 09:32:27;;;;;;;0.87;0.80;;;22.40;92.00;;;;;;5055625;28;20497;-67
2021/08/06 09:34:53;;;;;;;4.33;1.57;;;21.90;92.40;;;;;;5055284;28;20401;-69
2021/08/06 09:37:21;;;;;;;1.47;1.37;;;21.20;93.00;;;;;;5055679;28;20411;-67
2021/08/06 09:39:48;;;;;;;3.80;1.40;;;21.10;92.90;;;;;;5055564;28;20493;-66
2021/08/06 09:42:15;;;;;;;2.00;1.20;;;21.00;92.70;;;;;;5054293;28;20956;-67
2021/08/06 09:44:41;;;;;;;5.13;1.00;;;20.80;93.00;;;;;;5055158;28;20411;-68
2021/08/06 09:47:21;;;;;;;2.20;1.80;;;20.70;94.40;;;;;;5055384;28;20463;-69
2021/08/06 09:49:49;;;;;;;3.30;1.37;;;20.90;93.40;;;;;;5055523;28;20500;-69
2021/08/06 09:52:15;;;;;;;5.33;1.87;;;21.00;92.50;;;;;;5055167;28;20428;-66
2021/08/06 09:54:48;;;;;;;1.50;1.40;;;20.30;93.60;;;;;;5053712;28;20423;-67
2021/08/06 09:57:14;;;;;;;0.97;0.90;;;20.20;93.20;;;;;;5055336;28;20538;-66
2021/08/06 09:59:40;;;;;;;1.07;0.97;;;20.40;93.20;;;;;;5055179;28;20420;-67
2021/08/06 10:02:19;;;;;;;1.27;1.17;;;20.60;93.00;;;;;;5055116;28;20425;-67
2021/08/06 10:04:59;;;;;;;1.20;1.10;;;20.80;93.70;;;;;;5054944;28;20251;-68
2021/08/06 10:07:26;;;;;;;1.77;1.17;;;20.70;92.90;;;;;;5055104;28;20770;-67
2021/08/06 10:09:52;;;;;;;2.40;1.27;;;20.60;94.30;;;;;;5054799;28;20428;-67
2021/08/06 10:12:18;;;;;;;2.07;1.20;;;20.50;93.70;;;;;;5054867;28;20413;-67
2021/08/06 10:14:44;;;;;;;3.13;1.40;;;20.40;93.90;;;;;;5054810;28;20411;-66
2021/08/06 10:17:11;;;;;;;2.20;1.30;;;20.30;92.50;;;;;;5054922;28;20542;-67
2021/08/06 10:19:37;;;;;;;2.30;1.20;;;20.50;94.10;;;;;;5054863;28;20407;-66
2021/08/06 10:22:05;;;;;;;1.70;1.03;;;20.80;92.80;;;;;;5054633;28;20472;-66
2021/08/06 10:24:31;;;;;;;1.90;0.90;;;21.30;91.00;;;;;;5054555;28;20758;-66
2021/08/06 10:26:58;;;;;;;1.27;1.17;;;21.60;90.80;;;;;;5054829;28;20431;-66
2021/08/06 10:29:23;;;;;;;1.50;1.23;;;21.80;90.20;;;;;;5054684;28;20405;-67
2021/08/06 10:32:09;;;;;;;1.90;1.17;;;22.20;91.80;;;;;;5054008;28;20499;-67
2021/08/06 10:35:07;;;;;;;1.60;0.77;;;22.30;92.00;;;;;;5054318;28;20178;-66
2021/08/06 10:37:54;;;;;;;1.47;0.80;;;22.50;88.60;;;;;;5054669;28;20404;-67
2021/08/06 10:40:32;;;;;;;0.60;0.60;;;22.70;88.50;;;;;;5054522;28;20439;-67
2021/08/06 10:43:18;;;;;;;1.77;1.50;;;22.80;87.30;;;;;;5054315;28;20537;-67
2021/08/06 10:45:47;;;;;;;3.80;1.30;;;22.90;88.40;;;;;;5023373;28;20411;-66
2021/08/06 10:48:34;;;;;;;1.70;1.20;;;23.00;88.80;;;;;;5054413;28;20923;-67
2021/08/06 10:51:20;;;;;;;2.13;0.90;;;23.10;89.80;;;;;;5054270;28;20485;-67
2021/08/06 10:53:55;;;;;;;3.40;1.23;;;22.80;90.30;;;;;;5053905;28;20527;-67
2021/08/06 10:56:28;;;;;;;2.60;1.20;;;22.20;91.10;;;;;;5054190;28;20817;-67
2021/08/06 10:58:55;;;;;;;2.97;1.07;;;22.20;90.80;;;;;;5054251;28;20423;-67
2021/08/06 11:01:33;;;;;;;3.53;0.90;;;22.20;88.20;;;;;;5053766;28;20428;-67
2021/08/06 11:04:04;;;;;;;1.60;0.90;;;22.00;88.60;;;;;;5053915;28;20905;-66
2021/08/06 11:06:40;;;;;;;1.30;1.00;;;22.10;89.10;;;;;;5053927;28;20889;-67
2021/08/06 11:09:08;;;;;;;1.20;1.10;;;22.20;90.40;;;;;;5053798;28;20865;-67
2021/08/06 11:11:59;;;;;;;2.60;0.90;;;22.50;88.50;;;;;;5053690;28;20438;-68
2021/08/06 11:14:28;;;;;;;1.60;0.90;;;22.60;87.60;;;;;;5053753;28;20493;-68
2021/08/06 11:17:09;;;;;;;2.00;0.80;;;22.90;87.30;;;;;;5053594;28;20817;-67
2021/08/06 11:19:40;;;;;;;2.87;0.70;;;23.20;83.20;;;;;;5053852;28;20760;-68
2021/08/06 11:22:33;;;;;;;1.50;1.40;;;23.60;86.00;;;;;;5053760;28;20549;-67
2021/08/06 11:25:25;;;;;;;1.13;1.07;;;23.40;85.90;;;;;;5047244;28;20415;-68
2021/08/06 11:27:59;;;;;;;2.33;1.40;;;23.50;83.20;;;;;;5050638;28;20470;-66
2021/08/06 11:30:36;;;;;;;1.60;1.00;;;23.60;87.40;;;;;;5053600;28;20428;-67
2021/08/06 11:33:06;;;;;;;0.83;0.80;;;23.70;82.30;;;;;;5053543;28;20486;-67
2021/08/06 11:35:36;;;;;;;0.80;0.80;;;23.70;84.90;;;;;;5053246;28;20490;-67
2021/08/06 11:38:05;;;;;;;3.43;0.80;;;23.70;81.40;;;;;;5053627;28;20821;-67
2021/08/06 11:40:33;;;;;;;2.10;0.70;;;23.70;85.30;;;;;;5053408;28;20910;-68
2021/08/06 11:43:10;;;;;;;2.20;1.20;;;23.90;81.60;;;;;;5053133;28;20409;-66
2021/08/06 11:45:36;;;;;;;1.37;1.20;;;23.60;80.40;;;;;;5054031;28;20461;-66
2021/08/06 11:48:03;;;;;;;0.90;0.80;;;23.20;80.20;;;;;;5053389;28;20799;-67
2021/08/06 11:50:41;;;;;;;2.00;0.83;;;23.20;82.20;;;;;;5053206;28;20194;-67
2021/08/06 11:53:18;;;;;;;3.03;0.90;;;23.20;80.40;;;;;;5053242;28;20447;-66
2021/08/06 11:55:47;;;;;;;2.07;1.10;;;22.90;79.90;;;;;;5053612;28;20526;-67
2021/08/06 11:58:14;;;;;;;1.50;0.87;;;22.90;81.00;;;;;;5053180;28;20382;-67
2021/08/06 12:00:43;;;;;;;1.37;1.00;;;23.30;83.80;;;;;;5053196;28;20417;-67
2021/08/06 12:03:16;;;;;;;1.37;1.10;;;23.40;82.20;;;;;;5053250;28;20428;-67
2021/08/06 12:05:50;;;;;;;1.63;1.00;;;23.30;79.10;;;;;;5053361;28;20434;-67
2021/08/06 12:08:20;;;;;;;2.17;1.30;;;23.40;80.70;;;;;;5053372;28;20809;-68
2021/08/06 12:11:07;;;;;;;0.90;0.60;;;23.50;82.20;;;;;;5053245;28;20420;-67
2021/08/06 12:13:35;;;;;;;1.37;0.87;;;23.50;81.60;;;;;;5053031;28;20391;-67
2021/08/06 12:16:11;;;;;;;2.70;0.93;;;23.30;77.30;;;;;;5053240;28;20486;-68
2021/08/06 12:18:45;;;;;;;2.27;1.07;;;23.50;78.80;;;;;;5053058;28;20404;-67
2021/08/06 12:21:17;;;;;;;1.60;1.30;;;23.50;76.80;;;;;;5053043;28;20397;-68
2021/08/06 12:23:51;;;;;;;5.03;1.23;;;23.70;82.60;;;;;;5052926;28;20407;-66
2021/08/06 12:26:35;;;;;;;0.83;0.80;;;23.80;78.50;;;;;;5053134;28;20400;-68
2021/08/06 12:29:11;;;;;;;4.00;1.10;;;24.10;79.30;;;;;;5052822;28;20375;-67
2021/08/06 12:31:52;;;;;;;1.23;0.90;;;24.30;76.40;;;;;;5051538;28;20949;-68
2021/08/06 12:34:23;;;;;;;2.50;1.00;;;24.20;76.00;;;;;;5052832;28;20409;-67
2021/08/06 12:37:01;;;;;;;1.03;0.90;;;24.00;82.80;;;;;;5052955;28;20510;-67
2021/08/06 12:39:30;;;;;;;3.03;1.20;;;23.80;76.60;;;;;;5053298;28;20359;-66
2021/08/06 12:42:19;;;;;;;1.40;1.30;;;23.80;81.60;;;;;;5052907;28;20449;-66
2021/08/06 12:44:58;;;;;;;1.20;1.10;;;23.60;77.90;;;;;;5052864;28;20378;-68
2021/08/06 12:47:25;;;;;;;1.27;0.90;;;23.70;83.10;;;;;;5052917;28;20938;-67
2021/08/06 12:50:01;;;;;;;3.43;1.17;;;23.70;80.20;;;;;;5053059;28;20415;-67
2021/08/06 12:52:29;;;;;;;1.43;0.70;;;23.80;81.70;;;;;;5053098;28;20385;-67
2021/08/06 12:54:54;;;;;;;1.27;0.90;;;23.80;74.30;;;;;;5052713;28;20390;-67